createdAt,value
2023-02-02T00:01:15.855Z,98441.97
2023-02-02T00:03:43.042Z,98443.78
2023-02-02T00:06:10.549Z,98446.28
2023-02-02T00:08:38.366Z,98424.53
2023-02-02T00:11:06.514Z,98379.78
2023-02-02T00:13:33.604Z,98433.13
2023-02-02T00:16:26.263Z,98437.44
2023-02-02T00:18:54.505Z,98429.69
2023-02-02T00:21:21.611Z,98427.88
2023-02-02T00:23:48.692Z,98437.50
2023-02-02T00:26:16.595Z,98418.28
2023-02-02T00:28:43.706Z,98428.78
2023-02-02T00:31:10.973Z,98432.34
2023-02-02T00:33:38.363Z,98416.59
2023-02-02T00:36:05.791Z,98431.56
2023-02-02T00:38:32.769Z,98425.41
2023-02-02T00:40:59.724Z,98396.38
2023-02-02T00:43:26.819Z,98428.81
2023-02-02T00:45:54.189Z,98434.91
2023-02-02T00:48:22.386Z,98435.66
2023-02-02T00:50:49.450Z,98406.59
2023-02-02T00:53:16.606Z,98416.25
2023-02-02T00:55:43.876Z,98435.25
2023-02-02T00:58:11.047Z,98432.63
2023-02-02T01:00:38.166Z,98426.13
2023-02-02T01:03:06.225Z,98434.94
2023-02-02T01:05:36.609Z,98439.19
2023-02-02T01:08:03.752Z,98411.25
2023-02-02T01:10:30.838Z,98441.72
2023-02-02T01:12:57.878Z,98436.47
2023-02-02T01:15:25.465Z,98430.34
2023-02-02T01:17:56.414Z,98436.34
2023-02-02T01:23:27.629Z,98409.28
2023-02-02T01:25:56.727Z,98424.13
2023-02-02T01:28:24.564Z,98411.97
2023-02-02T01:30:52.446Z,98412.91
2023-02-02T01:33:19.958Z,98425.88
2023-02-02T01:35:48.700Z,98421.66
2023-02-02T01:38:17.090Z,98427.59
2023-02-02T01:40:58.121Z,98393.56
2023-02-02T01:43:30.444Z,98416.44
2023-02-02T01:45:58.939Z,98410.28
2023-02-02T01:48:32.763Z,98413.88
2023-02-02T01:51:04.605Z,98413.88
2023-02-02T01:53:32.791Z,98392.78
2023-02-02T01:56:01.257Z,98426.13
2023-02-02T01:58:35.707Z,98417.56
2023-02-02T02:01:02.805Z,98403.81
2023-02-02T02:03:33.350Z,98380.75
2023-02-02T02:06:17.307Z,98393.34
2023-02-02T02:08:55.985Z,98409.97
2023-02-02T02:11:24.244Z,98411.44
2023-02-02T02:14:14.134Z,98403.56
2023-02-02T02:17:26.007Z,98424.50
2023-02-02T02:20:31.641Z,98414.94
2023-02-02T02:23:55.243Z,98424.44
2023-02-02T02:26:54.759Z,98382.47
2023-02-02T02:30:00.594Z,98426.88
2023-02-02T02:32:52.528Z,98426.88
2023-02-02T02:35:40.569Z,98428.63
2023-02-02T02:38:23.271Z,98434.72
2023-02-02T02:41:05.180Z,98418.22
2023-02-02T02:43:42.112Z,98398.84
2023-02-02T02:46:10.590Z,98370.13
2023-02-02T02:48:37.829Z,98426.25
2023-02-02T02:51:54.498Z,98396.59
2023-02-02T02:54:32.953Z,98430.47
2023-02-02T02:57:25.594Z,98429.63
2023-02-02T02:59:55.735Z,98430.59
2023-02-02T03:02:43.043Z,98431.56
2023-02-02T03:05:34.301Z,98427.97
2023-02-02T03:08:15.546Z,98434.03
2023-02-02T03:10:46.215Z,98434.84
2023-02-02T03:13:15.790Z,98436.50
2023-02-02T03:15:44.738Z,98435.72
2023-02-02T03:18:17.603Z,98438.41
2023-02-02T03:20:46.198Z,98407.06
2023-02-02T03:23:14.495Z,98421.25
2023-02-02T03:25:42.094Z,98438.72
2023-02-02T03:28:09.644Z,98431.66
2023-02-02T03:30:38.285Z,98394.06
2023-02-02T03:33:05.975Z,98438.66
2023-02-02T03:35:33.133Z,98450.75
2023-02-02T03:38:00.193Z,98443.00
2023-02-02T03:40:28.743Z,98448.25
2023-02-02T03:42:56.502Z,98402.75
2023-02-02T03:45:27.011Z,98432.41
2023-02-02T03:47:54.512Z,98440.03
2023-02-02T03:50:21.517Z,98445.47
2023-02-02T03:52:48.570Z,98412.41
2023-02-02T03:55:15.580Z,98441.88
2023-02-02T03:57:42.638Z,98457.38
2023-02-02T04:00:10.596Z,98418.06
2023-02-02T04:02:40.767Z,98410.91
2023-02-02T04:05:08.358Z,98452.13
2023-02-02T04:07:35.375Z,98451.25
2023-02-02T04:10:03.122Z,98427.50
2023-02-02T04:12:30.699Z,98429.22
2023-02-02T04:14:57.864Z,98421.28
2023-02-02T04:17:24.985Z,98379.81
2023-02-02T04:19:58.236Z,98435.03
2023-02-02T04:22:26.108Z,98455.94
2023-02-02T04:24:53.490Z,98458.53
2023-02-02T04:27:20.586Z,98452.41
2023-02-02T04:29:47.709Z,98450.72
2023-02-02T04:32:16.347Z,98443.78
2023-02-02T04:34:43.854Z,98447.09
2023-02-02T04:37:11.851Z,98427.91
2023-02-02T04:39:38.932Z,98445.34
2023-02-02T04:42:06.102Z,98440.97
2023-02-02T04:44:33.395Z,98438.28
2023-02-02T04:47:00.577Z,98393.59
2023-02-02T04:49:27.746Z,98404.81
2023-02-02T04:51:54.822Z,98456.44
2023-02-02T04:54:22.217Z,98452.75
2023-02-02T04:56:49.439Z,98457.13
2023-02-02T04:59:16.440Z,98436.03
2023-02-02T05:01:43.608Z,98435.03
2023-02-02T05:04:11.917Z,98464.91
2023-02-02T05:06:39.181Z,98468.44
2023-02-02T05:09:06.182Z,98460.31
2023-02-02T05:11:33.219Z,98461.22
2023-02-02T05:14:00.360Z,98470.78
2023-02-02T05:16:29.130Z,98477.81
2023-02-02T05:18:57.436Z,98475.22
2023-02-02T05:21:24.956Z,98461.88
2023-02-02T05:23:52.031Z,98476.91
2023-02-02T05:26:25.109Z,98438.34
2023-02-02T05:28:52.368Z,98458.56
2023-02-02T05:31:20.578Z,98467.19
2023-02-02T05:33:47.677Z,98475.81
2023-02-02T05:36:15.004Z,98479.38
2023-02-02T05:38:42.214Z,98462.88
2023-02-02T05:41:09.473Z,98456.53
2023-02-02T05:43:37.313Z,98489.00
2023-02-02T05:46:05.498Z,98462.59
2023-02-02T05:48:33.486Z,98434.97
2023-02-02T05:51:13.606Z,98457.72
2023-02-02T05:53:41.831Z,98448.88
2023-02-02T05:56:10.199Z,98479.38
2023-02-02T05:58:38.060Z,98445.28
2023-02-02T06:01:08.106Z,98484.66
2023-02-02T06:03:36.516Z,98460.09
2023-02-02T06:06:06.937Z,98462.88
2023-02-02T06:08:35.662Z,98488.97
2023-02-02T06:11:11.833Z,98464.22
2023-02-02T06:13:40.084Z,98496.03
2023-02-02T06:16:08.768Z,98476.91
2023-02-02T06:18:37.817Z,98496.03
2023-02-02T06:21:07.343Z,98502.38
2023-02-02T06:23:36.183Z,98503.38
2023-02-02T06:26:04.847Z,98458.75
2023-02-02T06:28:33.457Z,98501.59
2023-02-02T06:31:06.647Z,98498.28
2023-02-02T06:33:35.332Z,98515.81
2023-02-02T06:36:05.953Z,98505.69
2023-02-02T06:38:34.320Z,98498.63
2023-02-02T06:41:03.605Z,98505.84
2023-02-02T06:43:33.677Z,98506.06
2023-02-02T06:46:01.798Z,98461.44
2023-02-02T06:48:29.862Z,98508.63
2023-02-02T06:51:01.442Z,98511.22
2023-02-02T06:53:29.455Z,98516.38
2023-02-02T06:55:59.408Z,98507.75
2023-02-02T06:58:28.616Z,98509.69
2023-02-02T07:00:56.597Z,98520.13
2023-02-02T07:03:24.689Z,98513.44
2023-02-02T07:05:52.612Z,98522.19
2023-02-02T07:08:20.738Z,98511.13
2023-02-02T07:11:11.978Z,98507.84
2023-02-02T07:13:36.898Z,98473.03
2023-02-02T07:16:06.382Z,98508.69
2023-02-02T07:18:34.385Z,98517.38
2023-02-02T07:21:02.433Z,98497.41
2023-02-02T07:23:30.939Z,98530.72
2023-02-02T07:26:05.929Z,98521.38
2023-02-02T07:28:34.539Z,98498.50
2023-02-02T07:31:14.317Z,98498.38
2023-02-02T07:33:43.959Z,98525.34
2023-02-02T07:36:13.680Z,98521.78
2023-02-02T07:38:41.604Z,98486.41
2023-02-02T07:41:09.601Z,98536.09
2023-02-02T07:43:37.810Z,98532.41
2023-02-02T07:46:08.749Z,98513.75
2023-02-02T07:48:40.186Z,98535.56
2023-02-02T07:51:10.468Z,98539.34
2023-02-02T07:53:38.604Z,98542.63
2023-02-02T07:56:16.658Z,98504.31
2023-02-02T07:58:44.541Z,98528.56
2023-02-02T08:01:14.013Z,98541.63
2023-02-02T08:03:43.051Z,98541.88
2023-02-02T08:06:15.547Z,98531.72
2023-02-02T08:08:42.859Z,98542.16
2023-02-02T08:11:12.139Z,98532.56
2023-02-02T08:13:40.068Z,98501.78
2023-02-02T08:16:07.999Z,98535.03
2023-02-02T08:18:35.920Z,98548.81
2023-02-02T08:21:04.820Z,98546.25
2023-02-02T08:23:31.969Z,98536.09
2023-02-02T08:26:18.188Z,98541.88
2023-02-02T08:28:48.133Z,98546.97
2023-02-02T08:31:29.999Z,98496.41
2023-02-02T08:33:58.759Z,98494.25
2023-02-02T08:36:28.584Z,98511.22
2023-02-02T08:38:55.833Z,98558.16
2023-02-02T08:41:24.193Z,98547.16
2023-02-02T08:43:51.619Z,98491.66
2023-02-02T08:46:20.585Z,98539.81
2023-02-02T08:48:48.581Z,98521.75
2023-02-02T08:51:19.214Z,98520.13
2023-02-02T08:53:46.863Z,98521.75
2023-02-02T08:56:19.133Z,98538.72
2023-02-02T08:59:05.445Z,98533.56
2023-02-02T09:01:33.962Z,98536.22
2023-02-02T09:04:04.720Z,98517.63
2023-02-02T09:06:37.491Z,98503.78
2023-02-02T09:09:08.268Z,98537.69
2023-02-02T09:11:36.199Z,98505.69
2023-02-02T09:14:06.495Z,98466.59
2023-02-02T09:16:34.788Z,98523.75
2023-02-02T09:19:02.480Z,98513.44
2023-02-02T09:21:29.750Z,98532.31
2023-02-02T09:23:56.889Z,98518.91
2023-02-02T09:26:26.906Z,98500.72
2023-02-02T09:29:03.073Z,98532.84
2023-02-02T09:31:33.221Z,98538.94
2023-02-02T09:34:02.383Z,98531.84
2023-02-02T09:36:29.948Z,98532.63
2023-02-02T09:38:57.020Z,98488.94
2023-02-02T09:41:32.917Z,98529.13
2023-02-02T09:44:42.049Z,98530.97
2023-02-02T09:47:34.900Z,98523.97
2023-02-02T09:50:16.397Z,98498.75
2023-02-02T09:52:58.361Z,98502.31
2023-02-02T09:55:35.183Z,98519.50
2023-02-02T09:58:08.172Z,98378.38
2023-02-02T10:00:40.047Z,98504.91
2023-02-02T10:03:29.568Z,98525.78
2023-02-02T10:06:18.686Z,98518.84
2023-02-02T10:08:59.595Z,98506.69
2023-02-02T10:11:33.740Z,98465.81
2023-02-02T10:14:07.884Z,98469.63
2023-02-02T10:16:36.658Z,98509.81
2023-02-02T10:19:06.314Z,98515.75
2023-02-02T10:21:43.735Z,98509.66
2023-02-02T10:24:21.123Z,98499.38
2023-02-02T10:26:55.248Z,98496.00
2023-02-02T10:29:22.194Z,98505.97
2023-02-02T10:32:27.579Z,98500.44
2023-02-02T10:35:29.800Z,98492.00
2023-02-02T10:37:57.155Z,98497.31
2023-02-02T10:40:54.810Z,98497.25
2023-02-02T10:43:45.929Z,98495.38
2023-02-02T10:46:20.575Z,98499.00
2023-02-02T10:48:49.209Z,98502.63
2023-02-02T10:51:20.453Z,98481.09
2023-02-02T10:53:52.378Z,98499.91
2023-02-02T10:56:48.869Z,98502.63
2023-02-02T10:59:19.291Z,98499.19
2023-02-02T11:01:46.133Z,98502.94
2023-02-02T11:04:31.621Z,98499.56
2023-02-02T11:07:01.390Z,98501.28
2023-02-02T11:09:32.909Z,98506.44
2023-02-02T11:12:30.773Z,98489.91
2023-02-02T11:15:05.426Z,98502.91
2023-02-02T11:17:33.559Z,98495.63
2023-02-02T11:20:01.152Z,98492.06
2023-02-02T11:22:39.469Z,98476.75
2023-02-02T11:25:22.481Z,98483.75
2023-02-02T11:27:49.972Z,98447.13
2023-02-02T11:30:38.626Z,98466.47
2023-02-02T11:33:20.898Z,98504.31
2023-02-02T11:36:03.349Z,98495.69
2023-02-02T11:38:31.024Z,98494.69
2023-02-02T11:41:02.443Z,98517.19
2023-02-02T11:43:48.366Z,98514.53
2023-02-02T11:46:22.123Z,98518.09
2023-02-02T11:49:16.678Z,98522.44
2023-02-02T11:51:44.955Z,98488.38
2023-02-02T11:54:29.415Z,98523.13
2023-02-02T11:56:59.751Z,98521.38
2023-02-02T11:59:37.080Z,98523.06
2023-02-02T12:02:13.682Z,98514.16
2023-02-02T12:04:41.379Z,98463.28
2023-02-02T12:07:38.515Z,98523.56
2023-02-02T12:10:26.975Z,98496.25
2023-02-02T12:13:04.140Z,98506.72
2023-02-02T12:15:34.248Z,98520.69
2023-02-02T12:18:18.407Z,98431.75
2023-02-02T12:21:18.359Z,98519.34
2023-02-02T12:24:08.562Z,98522.94
2023-02-02T12:26:37.811Z,98501.94
2023-02-02T12:29:29.540Z,98526.28
2023-02-02T12:32:27.089Z,98523.53
2023-02-02T12:35:29.424Z,98521.03
2023-02-02T12:38:18.807Z,98527.06
2023-02-02T12:40:45.931Z,98509.69
2023-02-02T12:43:45.816Z,98524.50
2023-02-02T12:46:45.169Z,98521.25
2023-02-02T12:49:33.779Z,98522.78
2023-02-02T12:52:17.021Z,98484.94
2023-02-02T12:55:05.764Z,98518.91
2023-02-02T12:57:39.744Z,98527.66
2023-02-02T13:00:27.691Z,98521.50
2023-02-02T13:03:15.174Z,98543.69
2023-02-02T13:06:12.979Z,98532.44
2023-02-02T13:08:55.219Z,98472.97
2023-02-02T13:11:51.934Z,98534.13
2023-02-02T13:14:33.054Z,98534.88
2023-02-02T13:17:12.029Z,98525.22
2023-02-02T13:19:54.564Z,98518.16
2023-02-02T13:22:29.269Z,98527.53
2023-02-02T13:25:01.627Z,98522.97
2023-02-02T13:27:31.621Z,98540.38
2023-02-02T13:30:31.031Z,98537.75
2023-02-02T13:33:25.296Z,98494.97
2023-02-02T13:36:00.579Z,98507.28
2023-02-02T13:38:39.419Z,98522.03
2023-02-02T13:41:10.294Z,98529.69
2023-02-02T13:43:47.187Z,98547.22
2023-02-02T13:46:26.286Z,98527.41
2023-02-02T13:49:13.484Z,98526.53
2023-02-02T13:52:11.058Z,98533.47
2023-02-02T13:55:07.525Z,98538.47
2023-02-02T13:58:17.409Z,98533.22
2023-02-02T14:00:56.832Z,98508.63
2023-02-02T14:03:38.541Z,98547.06
2023-02-02T14:06:13.543Z,98545.31
2023-02-02T14:08:56.965Z,98542.69
2023-02-02T14:11:36.054Z,98552.16
2023-02-02T14:14:33.615Z,98538.06
2023-02-02T14:17:23.411Z,98550.78
2023-02-02T14:19:55.633Z,98479.00
2023-02-02T14:22:41.462Z,98564.66
2023-02-02T14:25:30.185Z,98566.50
2023-02-02T14:28:02.097Z,98549.81
2023-02-02T14:30:38.775Z,98548.38
2023-02-02T14:33:21.249Z,98563.81
2023-02-02T14:35:48.425Z,98572.28
2023-02-02T14:38:29.996Z,98551.34
2023-02-02T14:41:04.819Z,98572.34
2023-02-02T14:43:49.925Z,98576.69
2023-02-02T14:46:39.802Z,98574.97
2023-02-02T14:49:10.608Z,98578.47
2023-02-02T14:51:48.830Z,98590.63
2023-02-02T14:54:33.826Z,98560.75
2023-02-02T14:57:23.587Z,98560.69
2023-02-02T14:59:52.119Z,98552.03
2023-02-02T15:02:23.938Z,98556.16
2023-02-02T15:04:51.314Z,98588.69
2023-02-02T15:07:24.873Z,98575.75
2023-02-02T15:09:56.722Z,98597.44
2023-02-02T15:12:44.903Z,98583.56
2023-02-02T15:15:29.818Z,98532.06
2023-02-02T15:18:38.179Z,98589.53
2023-02-02T15:21:17.358Z,98602.44
2023-02-02T15:23:46.919Z,98588.47
2023-02-02T15:26:25.456Z,98611.84
2023-02-02T15:29:01.719Z,98601.44
2023-02-02T15:31:51.567Z,98599.63
2023-02-02T15:34:37.783Z,98606.63
2023-02-02T15:37:08.238Z,98611.84
2023-02-02T15:39:41.963Z,98604.09
2023-02-02T15:42:48.609Z,98596.34
2023-02-02T15:45:43.472Z,98598.97
2023-02-02T15:48:22.456Z,98605.78
2023-02-02T15:50:54.838Z,98606.63
2023-02-02T15:53:28.887Z,98610.91
2023-02-02T15:55:58.003Z,98609.94
2023-02-02T15:58:33.201Z,98615.97
2023-02-02T16:01:15.801Z,98616.72
2023-02-02T16:03:45.678Z,98624.56
2023-02-02T16:06:12.824Z,98621.13
2023-02-02T16:08:41.197Z,98621.03
2023-02-02T16:11:15.576Z,98618.34
2023-02-02T16:13:54.819Z,98575.16
2023-02-02T16:16:25.483Z,98637.38
2023-02-02T16:19:10.949Z,98640.78
2023-02-02T16:25:26.621Z,98584.59
2023-02-02T16:27:54.101Z,98637.13
2023-02-02T16:30:29.251Z,98598.41
2023-02-02T16:32:56.683Z,98643.09
2023-02-02T16:35:44.081Z,98630.16
2023-02-02T16:38:33.275Z,98614.34
2023-02-02T16:41:12.270Z,98616.16
2023-02-02T16:43:42.021Z,98637.19
2023-02-02T16:46:17.573Z,98643.94
2023-02-02T16:48:55.705Z,98621.03
2023-02-02T16:51:34.120Z,98645.59
2023-02-02T16:54:07.441Z,98643.75
2023-02-02T16:56:46.377Z,98618.22
2023-02-02T16:59:30.306Z,98629.72
2023-02-02T17:02:38.516Z,98654.16
2023-02-02T17:05:29.381Z,98652.19
2023-02-02T17:07:58.644Z,98662.75
2023-02-02T17:10:32.256Z,98662.84
2023-02-02T17:13:00.355Z,98657.63
2023-02-02T17:15:34.513Z,98641.91
2023-02-02T17:18:03.701Z,98634.53
2023-02-02T17:20:31.258Z,98633.56
2023-02-02T17:23:07.114Z,98653.81
2023-02-02T17:25:42.510Z,98673.78
2023-02-02T17:28:16.111Z,98606.28
2023-02-02T17:30:49.549Z,98667.66
2023-02-02T17:33:19.436Z,98646.41
2023-02-02T17:35:54.753Z,98683.03
2023-02-02T17:38:24.522Z,98690.97
2023-02-02T17:40:53.071Z,98686.38
2023-02-02T17:43:21.972Z,98634.47
2023-02-02T17:45:49.544Z,98691.47
2023-02-02T17:48:16.834Z,98673.38
2023-02-02T17:50:44.118Z,98672.16
2023-02-02T17:53:16.962Z,98679.22
2023-02-02T17:55:45.555Z,98657.44
2023-02-02T17:58:17.283Z,98694.03
2023-02-02T18:00:51.920Z,98661.41
2023-02-02T18:03:34.249Z,98659.78
2023-02-02T18:06:02.292Z,98655.69
2023-02-02T18:08:30.673Z,98629.06
2023-02-02T18:10:58.565Z,98646.03
2023-02-02T18:13:26.165Z,98663.56
2023-02-02T18:15:55.345Z,98654.78
2023-02-02T18:18:23.243Z,98686.47
2023-02-02T18:20:51.082Z,98661.03
2023-02-02T18:23:19.320Z,98654.84
2023-02-02T18:25:46.828Z,98673.16
2023-02-02T18:28:17.336Z,98615.31
2023-02-02T18:30:46.804Z,98687.84
2023-02-02T18:33:19.929Z,98694.56
2023-02-02T18:35:48.365Z,98661.63
2023-02-02T18:38:15.810Z,98678.88
2023-02-02T18:40:43.170Z,98647.31
2023-02-02T18:43:10.265Z,98670.13
2023-02-02T18:45:38.076Z,98592.84
2023-02-02T18:48:05.135Z,98674.19
2023-02-02T18:50:32.187Z,98647.19
2023-02-02T18:52:59.378Z,98673.59
2023-02-02T18:55:26.947Z,98685.50
2023-02-02T18:57:54.276Z,98667.97
2023-02-02T19:00:22.238Z,98694.19
2023-02-02T19:02:49.518Z,98693.28
2023-02-02T19:05:35.550Z,98664.53
2023-02-02T19:08:04.177Z,98715.03
2023-02-02T19:10:31.587Z,98672.09
2023-02-02T19:13:02.336Z,98677.03
2023-02-02T19:15:37.245Z,98702.13
2023-02-02T19:18:15.630Z,98672.53
2023-02-02T19:20:43.110Z,98709.09
2023-02-02T19:23:23.451Z,98708.13
2023-02-02T19:25:51.758Z,98702.00
2023-02-02T19:28:23.574Z,98707.00
2023-02-02T19:30:53.699Z,98664.09
2023-02-02T19:33:21.692Z,98693.25
2023-02-02T19:35:55.397Z,98704.34
2023-02-02T19:38:27.486Z,98686.16
2023-02-02T19:40:57.295Z,98678.81
2023-02-02T19:43:29.427Z,98663.91
2023-02-02T19:45:59.961Z,98714.38
2023-02-02T19:48:31.436Z,98665.28
2023-02-02T19:50:59.625Z,98693.88
2023-02-02T19:53:41.643Z,98674.56
2023-02-02T19:56:27.112Z,98699.47
2023-02-02T19:58:54.673Z,98672.81
2023-02-02T20:01:25.722Z,98698.41
2023-02-02T20:03:53.407Z,98706.47
2023-02-02T20:06:24.243Z,98697.09
2023-02-02T20:08:51.267Z,98703.94
2023-02-02T20:11:38.473Z,98709.09
2023-02-02T20:14:30.767Z,98698.13
2023-02-02T20:17:03.046Z,98702.56
2023-02-02T20:19:36.297Z,98691.22
2023-02-02T20:22:16.063Z,98701.72
2023-02-02T20:24:44.640Z,98703.94
2023-02-02T20:27:20.193Z,98701.53
2023-02-02T20:29:50.075Z,98728.16
2023-02-02T20:32:30.472Z,98688.97
2023-02-02T20:34:59.544Z,98704.00
2023-02-02T20:37:29.494Z,98696.97
2023-02-02T20:40:21.293Z,98717.22
2023-02-02T20:42:49.351Z,98673.25
2023-02-02T20:45:17.863Z,98714.53
2023-02-02T20:47:49.568Z,98722.28
2023-02-02T20:50:20.347Z,98722.06
2023-02-02T20:52:48.283Z,98717.00
2023-02-02T20:55:15.313Z,98681.69
2023-02-02T20:57:42.523Z,98718.44
2023-02-02T21:00:12.707Z,98718.50
2023-02-02T21:02:39.677Z,98728.78
2023-02-02T21:05:07.096Z,98697.38
2023-02-02T21:07:34.074Z,98670.22
2023-02-02T21:10:01.154Z,98664.91
2023-02-02T21:12:28.193Z,98711.41
2023-02-02T21:14:55.286Z,98704.97
2023-02-02T21:17:23.124Z,98704.97
2023-02-02T21:19:50.203Z,98703.25
2023-02-02T21:22:17.281Z,98688.50
2023-02-02T21:24:44.326Z,98709.44
2023-02-02T21:27:11.502Z,98721.81
2023-02-02T21:29:38.641Z,98687.72
2023-02-02T21:32:05.881Z,98714.94
2023-02-02T21:34:33.359Z,98691.13
2023-02-02T21:37:00.533Z,98718.97
2023-02-02T21:39:35.124Z,98725.09
2023-02-02T21:42:08.039Z,98726.91
2023-02-02T21:44:41.296Z,98727.78
2023-02-02T21:47:33.976Z,98722.19
2023-02-02T21:50:18.490Z,98728.34
2023-02-02T21:53:08.429Z,98733.59
2023-02-02T21:59:16.615Z,98719.34
2023-02-02T22:01:45.209Z,98734.31
2023-02-02T22:04:16.996Z,98731.63
2023-02-02T22:06:46.656Z,98720.44
2023-02-02T22:09:13.591Z,98730.00
2023-02-02T22:11:47.293Z,98730.19
2023-02-02T22:14:23.552Z,98727.56
2023-02-02T22:16:57.890Z,98698.09
2023-02-02T22:19:35.298Z,98721.63
2023-02-02T22:22:11.464Z,98727.78
2023-02-02T22:24:41.320Z,98719.03
2023-02-02T22:27:26.249Z,98712.97
2023-02-02T22:30:01.220Z,98720.97
2023-02-02T22:32:28.471Z,98724.50
2023-02-02T22:34:55.710Z,98713.28
2023-02-02T22:37:22.753Z,98734.03
2023-02-02T22:39:49.807Z,98702.53
2023-02-02T22:42:18.514Z,98716.75
2023-02-02T22:44:45.725Z,98726.34
2023-02-02T22:47:13.011Z,98689.31
2023-02-02T22:49:40.816Z,98699.41
2023-02-02T22:52:07.986Z,98696.78
2023-02-02T22:54:35.331Z,98727.09
2023-02-02T22:57:15.426Z,98724.31
2023-02-02T22:59:51.667Z,98681.56
2023-02-02T23:02:18.746Z,98713.94
2023-02-02T23:04:46.230Z,98712.97
2023-02-02T23:07:13.708Z,98711.16
2023-02-02T23:09:41.978Z,98736.50
2023-02-02T23:12:09.972Z,98721.59
2023-02-02T23:14:37.047Z,98737.28
2023-02-02T23:17:04.058Z,98734.66
2023-02-02T23:19:34.629Z,98723.28
2023-02-02T23:22:09.093Z,98736.50
2023-02-02T23:24:44.331Z,98712.09
2023-02-02T23:27:15.811Z,98707.81
2023-02-02T23:29:42.883Z,98718.56
2023-02-02T23:32:09.986Z,98704.50
2023-02-02T23:34:37.340Z,98686.28
2023-02-02T23:37:04.556Z,98712.75
2023-02-02T23:39:32.632Z,98704.94
2023-02-02T23:41:59.889Z,98725.78
2023-02-02T23:44:26.874Z,98676.97
2023-02-02T23:46:54.552Z,98725.78
2023-02-02T23:49:21.825Z,98703.06
2023-02-02T23:51:49.079Z,98675.00
2023-02-02T23:54:16.265Z,98663.38
2023-02-02T23:56:43.514Z,98720.50
2023-02-02T23:59:10.622Z,98695.81
